createdAt,value
2023-05-14T00:01:29.969Z,21.79
2023-05-14T00:03:56.991Z,21.76
2023-05-14T00:06:24.189Z,21.75
2023-05-14T00:08:50.975Z,21.75
2023-05-14T00:11:17.982Z,21.76
2023-05-14T00:13:44.815Z,21.77
2023-05-14T00:16:12.073Z,21.77
2023-05-14T00:18:39.141Z,21.76
2023-05-14T00:21:06.119Z,21.74
2023-05-14T00:23:32.996Z,21.74
2023-05-14T00:25:59.805Z,21.73
2023-05-14T00:28:26.683Z,21.68
2023-05-14T00:30:53.749Z,21.65
2023-05-14T00:33:20.735Z,21.63
2023-05-14T00:35:47.931Z,21.63
2023-05-14T00:38:19.469Z,21.61
2023-05-14T00:40:51.434Z,21.59
2023-05-14T00:43:19.849Z,21.59
2023-05-14T00:45:47.435Z,21.60
2023-05-14T00:48:14.245Z,21.61
2023-05-14T00:50:41.139Z,21.61
2023-05-14T00:53:10.599Z,21.61
2023-05-14T00:55:38.464Z,21.58
2023-05-14T00:58:07.511Z,21.53
2023-05-14T01:00:34.625Z,21.47
2023-05-14T01:03:03.258Z,21.44
2023-05-14T01:05:38.769Z,21.43
2023-05-14T01:08:34.020Z,21.43
2023-05-14T01:11:05.298Z,21.41
2023-05-14T01:13:40.772Z,21.39
2023-05-14T01:16:09.158Z,21.40
2023-05-14T01:18:36.346Z,21.41
2023-05-14T01:21:03.238Z,21.42
2023-05-14T01:23:30.122Z,21.43
2023-05-14T01:25:57.231Z,21.44
2023-05-14T01:28:28.945Z,21.45
2023-05-14T01:31:04.282Z,21.46
2023-05-14T01:33:31.066Z,21.45
2023-05-14T01:35:58.829Z,21.44
2023-05-14T01:38:25.843Z,21.43
2023-05-14T01:40:52.813Z,21.43
2023-05-14T01:43:19.722Z,21.42
2023-05-14T01:45:47.215Z,21.42
2023-05-14T01:48:15.051Z,21.42
2023-05-14T01:50:41.903Z,21.42
2023-05-14T01:53:08.744Z,21.40
2023-05-14T01:55:35.545Z,21.39
2023-05-14T01:58:02.454Z,21.37
2023-05-14T02:00:29.332Z,21.34
2023-05-14T02:02:57.962Z,21.31
2023-05-14T02:05:24.878Z,21.31
2023-05-14T02:07:52.819Z,21.30
2023-05-14T02:10:19.640Z,21.30
2023-05-14T02:12:49.516Z,21.30
2023-05-14T02:15:16.904Z,21.25
2023-05-14T02:17:43.770Z,21.21
2023-05-14T02:20:11.807Z,21.05
2023-05-14T02:22:38.794Z,20.86
2023-05-14T02:25:06.424Z,20.82
2023-05-14T02:27:33.861Z,20.87
2023-05-14T02:30:01.014Z,20.97
2023-05-14T02:32:28.535Z,21.08
2023-05-14T02:34:55.793Z,21.20
2023-05-14T02:37:22.608Z,21.29
2023-05-14T02:39:49.862Z,21.33
2023-05-14T02:42:16.762Z,21.35
2023-05-14T02:44:43.672Z,21.36
2023-05-14T02:47:11.210Z,21.35
2023-05-14T02:49:38.251Z,21.37
2023-05-14T02:52:05.683Z,21.37
2023-05-14T02:54:32.556Z,21.26
2023-05-14T02:56:59.367Z,21.19
2023-05-14T02:59:27.182Z,21.21
2023-05-14T03:01:54.834Z,21.28
2023-05-14T03:04:22.026Z,21.37
2023-05-14T03:06:48.814Z,21.45
2023-05-14T03:09:15.622Z,21.52
2023-05-14T03:11:42.522Z,21.58
2023-05-14T03:14:09.420Z,21.63
2023-05-14T03:16:36.379Z,21.67
2023-05-14T03:19:04.123Z,21.72
2023-05-14T03:21:32.084Z,21.78
2023-05-14T03:23:58.955Z,21.83
2023-05-14T03:26:25.769Z,21.88
2023-05-14T03:28:53.091Z,21.91
2023-05-14T03:31:19.943Z,21.95
2023-05-14T03:33:47.182Z,21.98
2023-05-14T03:36:13.978Z,21.99
2023-05-14T03:38:41.215Z,22.01
2023-05-14T03:41:08.903Z,22.07
2023-05-14T03:43:36.540Z,22.14
2023-05-14T03:46:03.347Z,22.20
2023-05-14T03:48:30.196Z,22.25
2023-05-14T03:50:57.225Z,22.31
2023-05-14T03:53:24.143Z,22.42
2023-05-14T03:55:51.138Z,22.50
2023-05-14T03:58:17.965Z,22.56
2023-05-14T04:00:44.737Z,22.61
2023-05-14T04:03:12.080Z,22.65
2023-05-14T04:05:39.043Z,22.68
2023-05-14T04:08:06.658Z,22.70
2023-05-14T04:10:33.506Z,22.74
2023-05-14T04:13:00.718Z,22.77
2023-05-14T04:15:31.818Z,22.79
2023-05-14T04:17:58.847Z,22.82
2023-05-14T04:20:25.896Z,22.85
2023-05-14T04:22:54.131Z,22.88
2023-05-14T04:25:21.019Z,22.92
2023-05-14T04:27:47.834Z,22.96
2023-05-14T04:30:14.931Z,23.00
2023-05-14T04:32:41.891Z,23.05
2023-05-14T04:35:10.399Z,23.11
2023-05-14T04:37:37.278Z,23.17
2023-05-14T04:40:05.926Z,23.22
2023-05-14T04:42:32.738Z,23.27
2023-05-14T04:44:59.526Z,23.36
2023-05-14T04:47:26.771Z,23.45
2023-05-14T04:49:53.936Z,23.55
2023-05-14T04:52:21.025Z,23.66
2023-05-14T04:54:47.914Z,23.78
2023-05-14T04:57:14.834Z,23.92
2023-05-14T04:59:41.628Z,24.15
2023-05-14T05:02:08.536Z,24.73
2023-05-14T05:04:35.429Z,25.70
2023-05-14T05:07:02.346Z,26.97
2023-05-14T05:09:30.348Z,28.15
2023-05-14T05:11:57.168Z,29.23
2023-05-14T05:14:23.962Z,30.11
2023-05-14T05:16:51.502Z,30.85
2023-05-14T05:19:19.710Z,31.03
2023-05-14T05:21:49.184Z,30.93
2023-05-14T05:24:16.013Z,31.10
2023-05-14T05:26:42.888Z,31.52
2023-05-14T05:29:09.677Z,32.09
2023-05-14T05:31:36.967Z,32.79
2023-05-14T05:34:03.896Z,33.52
2023-05-14T05:36:31.833Z,34.25
2023-05-14T05:38:58.616Z,34.92
2023-05-14T05:41:26.768Z,35.57
2023-05-14T05:43:53.539Z,36.12
2023-05-14T05:46:20.483Z,36.61
2023-05-14T05:48:47.367Z,37.09
2023-05-14T05:51:14.176Z,37.60
2023-05-14T05:53:40.972Z,38.01
2023-05-14T05:56:07.836Z,38.31
2023-05-14T05:58:35.188Z,38.55
2023-05-14T06:01:02.621Z,38.78
2023-05-14T06:03:29.499Z,38.97
2023-05-14T06:05:56.359Z,39.16
2023-05-14T06:08:23.269Z,39.34
2023-05-14T06:10:50.180Z,39.57
2023-05-14T06:13:17.229Z,39.77
2023-05-14T06:15:44.182Z,39.98
2023-05-14T06:18:10.974Z,40.26
2023-05-14T06:20:37.809Z,40.27
2023-05-14T06:23:04.694Z,40.04
2023-05-14T06:25:31.591Z,40.17
2023-05-14T06:27:58.455Z,40.35
2023-05-14T06:30:25.552Z,40.59
2023-05-14T06:32:52.796Z,40.70
2023-05-14T06:35:19.994Z,40.73
2023-05-14T06:37:46.887Z,40.92
2023-05-14T06:40:15.847Z,41.13
2023-05-14T06:42:42.703Z,41.35
2023-05-14T06:45:10.263Z,41.53
2023-05-14T06:47:37.211Z,41.71
2023-05-14T06:50:04.655Z,41.93
2023-05-14T06:52:31.469Z,42.19
2023-05-14T06:54:58.287Z,42.41
2023-05-14T06:57:25.092Z,42.54
2023-05-14T06:59:52.300Z,42.67
2023-05-14T07:02:19.065Z,42.79
2023-05-14T07:04:46.663Z,42.91
2023-05-14T07:07:15.633Z,43.02
2023-05-14T07:09:42.901Z,43.07
2023-05-14T07:12:09.774Z,43.12
2023-05-14T07:14:36.564Z,43.17
2023-05-14T07:17:03.610Z,43.00
2023-05-14T07:19:30.788Z,42.89
2023-05-14T07:21:58.248Z,42.60
2023-05-14T07:24:25.115Z,42.17
2023-05-14T07:26:52.260Z,41.70
2023-05-14T07:29:19.395Z,41.29
2023-05-14T07:31:46.619Z,40.98
2023-05-14T07:34:13.665Z,40.82
2023-05-14T07:36:41.225Z,40.72
2023-05-14T07:39:08.710Z,40.73
2023-05-14T07:41:35.530Z,40.67
2023-05-14T07:44:02.637Z,40.41
2023-05-14T07:46:29.435Z,40.11
2023-05-14T07:48:56.266Z,39.95
2023-05-14T07:51:23.134Z,39.92
2023-05-14T07:53:49.935Z,39.86
2023-05-14T07:56:16.731Z,39.85
2023-05-14T07:58:43.942Z,39.70
2023-05-14T08:01:10.724Z,39.43
2023-05-14T08:03:37.750Z,39.31
2023-05-14T08:06:04.734Z,39.27
2023-05-14T08:08:31.796Z,39.26
2023-05-14T08:10:58.667Z,39.29
2023-05-14T08:13:25.563Z,39.27
2023-05-14T08:15:52.764Z,39.17
2023-05-14T08:18:19.540Z,39.01
2023-05-14T08:20:47.167Z,38.94
2023-05-14T08:23:14.071Z,38.84
2023-05-14T08:25:40.892Z,38.67
2023-05-14T08:28:07.858Z,38.55
2023-05-14T08:30:34.814Z,38.45
2023-05-14T08:33:01.741Z,38.30
2023-05-14T08:35:28.689Z,38.16
2023-05-14T08:37:57.017Z,38.15
2023-05-14T08:40:24.080Z,38.20
2023-05-14T08:42:51.614Z,38.22
2023-05-14T08:45:19.979Z,38.24
2023-05-14T08:47:50.582Z,38.21
2023-05-14T08:50:18.394Z,38.17
2023-05-14T08:52:46.215Z,38.14
2023-05-14T08:55:13.390Z,38.11
2023-05-14T08:57:40.332Z,37.99
2023-05-14T09:00:16.615Z,38.02
2023-05-14T09:02:43.542Z,38.05
2023-05-14T09:05:10.721Z,38.09
2023-05-14T09:07:37.751Z,38.19
2023-05-14T09:10:05.419Z,38.23
2023-05-14T09:12:32.291Z,38.19
2023-05-14T09:14:59.114Z,38.12
2023-05-14T09:17:27.625Z,38.00
2023-05-14T09:19:54.648Z,37.64
2023-05-14T09:22:21.669Z,36.83
2023-05-14T09:25:05.236Z,35.94
2023-05-14T09:27:33.021Z,35.04
2023-05-14T09:30:13.623Z,34.17
2023-05-14T09:32:44.234Z,33.14
2023-05-14T09:35:20.673Z,32.39
2023-05-14T09:37:49.308Z,31.75
2023-05-14T09:40:17.503Z,31.25
2023-05-14T09:42:44.351Z,30.87
2023-05-14T09:45:11.336Z,30.55
2023-05-14T09:47:39.042Z,30.33
2023-05-14T09:50:07.037Z,30.20
2023-05-14T09:52:33.969Z,30.09
2023-05-14T09:55:01.121Z,29.97
2023-05-14T09:57:28.384Z,29.76
2023-05-14T09:59:55.280Z,29.75
2023-05-14T10:02:37.719Z,29.85
2023-05-14T10:05:06.485Z,30.13
2023-05-14T10:07:41.782Z,30.40
2023-05-14T10:10:11.814Z,30.68
2023-05-14T10:12:40.088Z,30.92
2023-05-14T10:15:16.452Z,31.12
2023-05-14T10:17:45.984Z,31.29
2023-05-14T10:20:13.816Z,31.49
2023-05-14T10:22:40.758Z,31.66
2023-05-14T10:25:08.589Z,31.86
2023-05-14T10:27:35.575Z,32.09
2023-05-14T10:30:02.776Z,32.32
2023-05-14T10:32:33.127Z,32.53
2023-05-14T10:34:59.964Z,32.69
2023-05-14T10:38:59.224Z,31.66
2023-05-14T10:41:26.131Z,32.67
2023-05-14T10:43:53.024Z,32.78
2023-05-14T10:46:19.893Z,32.81
2023-05-14T10:48:46.857Z,32.82
2023-05-14T10:51:14.097Z,32.84
2023-05-14T10:53:42.974Z,32.87
2023-05-14T10:56:11.354Z,32.90
2023-05-14T10:58:47.789Z,32.90
2023-05-14T11:01:14.671Z,32.92
2023-05-14T11:03:45.967Z,32.96
2023-05-14T11:06:15.090Z,33.03
2023-05-14T11:08:41.990Z,33.13
2023-05-14T11:11:08.980Z,33.24
2023-05-14T11:13:36.147Z,33.35
2023-05-14T11:16:15.057Z,33.49
2023-05-14T11:18:49.424Z,33.64
2023-05-14T11:21:17.538Z,33.75
2023-05-14T11:23:46.777Z,33.90
2023-05-14T11:26:13.659Z,34.06
2023-05-14T11:28:40.685Z,34.21
2023-05-14T11:31:07.599Z,34.33
2023-05-14T11:33:34.472Z,34.46
2023-05-14T11:36:01.376Z,34.59
2023-05-14T11:38:28.179Z,34.71
2023-05-14T11:40:55.808Z,34.84
2023-05-14T11:43:23.892Z,34.97
2023-05-14T11:45:52.528Z,35.04
2023-05-14T11:48:23.281Z,35.13
2023-05-14T11:50:51.609Z,35.19
2023-05-14T11:53:20.172Z,35.21
2023-05-14T11:55:47.505Z,35.23
2023-05-14T11:58:14.365Z,35.27
2023-05-14T12:00:41.590Z,35.33
2023-05-14T12:03:10.216Z,35.36
2023-05-14T12:05:40.514Z,35.37
2023-05-14T12:08:21.554Z,35.43
2023-05-14T12:10:48.623Z,35.47
2023-05-14T12:13:17.620Z,35.43
2023-05-14T12:15:47.148Z,35.36
2023-05-14T12:18:24.045Z,35.32
2023-05-14T12:20:52.268Z,35.30
2023-05-14T12:23:29.805Z,35.29
2023-05-14T12:26:02.489Z,35.25
2023-05-14T12:28:29.406Z,35.21
2023-05-14T12:30:57.522Z,34.74
2023-05-14T12:33:26.662Z,33.71
2023-05-14T12:35:54.276Z,32.57
2023-05-14T12:38:21.077Z,31.63
2023-05-14T12:40:47.954Z,31.13
2023-05-14T12:43:15.081Z,30.92
2023-05-14T12:45:41.869Z,30.76
2023-05-14T12:48:08.739Z,30.49
2023-05-14T12:50:35.691Z,30.22
2023-05-14T12:53:02.603Z,30.13
2023-05-14T12:55:29.498Z,30.08
2023-05-14T12:57:56.372Z,30.10
2023-05-14T13:00:23.401Z,30.12
2023-05-14T13:02:50.493Z,30.18
2023-05-14T13:05:17.325Z,30.23
2023-05-14T13:07:44.110Z,30.22
2023-05-14T13:10:11.984Z,30.23
2023-05-14T13:12:39.102Z,30.18
2023-05-14T13:15:06.837Z,30.12
2023-05-14T13:17:33.742Z,30.09
2023-05-14T13:20:00.933Z,30.09
2023-05-14T13:22:27.891Z,30.08
2023-05-14T13:24:54.672Z,30.10
2023-05-14T13:27:21.667Z,30.17
2023-05-14T13:29:48.547Z,30.25
2023-05-14T13:32:15.476Z,30.35
2023-05-14T13:34:44.026Z,30.50
2023-05-14T13:37:11.309Z,30.62
2023-05-14T13:39:39.365Z,30.73
2023-05-14T13:42:08.193Z,30.85
2023-05-14T13:44:36.262Z,30.93
2023-05-14T13:47:03.225Z,31.00
2023-05-14T13:49:30.120Z,31.07
2023-05-14T13:51:57.002Z,31.11
2023-05-14T13:54:23.816Z,31.15
2023-05-14T13:56:51.162Z,31.21
2023-05-14T13:59:18.470Z,31.27
2023-05-14T14:01:45.473Z,31.33
2023-05-14T14:04:12.534Z,31.38
2023-05-14T14:06:39.271Z,31.40
2023-05-14T14:09:06.051Z,31.37
2023-05-14T14:11:32.862Z,31.37
2023-05-14T14:13:59.641Z,31.36
2023-05-14T14:16:26.574Z,31.35
2023-05-14T14:18:53.561Z,31.32
2023-05-14T14:21:21.195Z,31.30
2023-05-14T14:23:48.465Z,31.27
2023-05-14T14:26:15.997Z,31.24
2023-05-14T14:28:43.096Z,31.22
2023-05-14T14:31:11.134Z,31.22
2023-05-14T14:33:38.043Z,31.22
2023-05-14T14:36:06.020Z,31.21
2023-05-14T14:38:32.826Z,31.20
2023-05-14T14:40:59.634Z,31.15
2023-05-14T14:43:26.451Z,31.06
2023-05-14T14:45:53.264Z,31.14
2023-05-14T14:48:28.140Z,31.15
2023-05-14T14:50:55.162Z,31.12
2023-05-14T14:53:22.260Z,31.11
2023-05-14T14:55:49.873Z,31.08
2023-05-14T14:58:18.438Z,31.04
2023-05-14T15:00:45.872Z,31.04
2023-05-14T15:03:12.991Z,30.98
2023-05-14T15:05:40.055Z,30.82
2023-05-14T15:08:06.908Z,30.72
2023-05-14T15:10:38.014Z,30.61
2023-05-14T15:13:06.084Z,30.59
2023-05-14T15:15:36.113Z,30.65
2023-05-14T15:18:03.871Z,30.64
2023-05-14T15:20:30.827Z,30.57
2023-05-14T15:22:57.721Z,30.45
2023-05-14T15:25:25.144Z,30.28
2023-05-14T15:27:52.335Z,30.09
2023-05-14T15:30:19.240Z,29.90
2023-05-14T15:32:46.856Z,29.74
2023-05-14T15:35:14.104Z,29.59
2023-05-14T15:37:42.727Z,29.46
2023-05-14T15:40:10.689Z,29.33
2023-05-14T15:42:38.665Z,29.33
2023-05-14T15:45:06.185Z,29.38
2023-05-14T15:47:33.593Z,29.43
2023-05-14T15:50:00.809Z,29.47
2023-05-14T15:52:27.616Z,29.50
2023-05-14T15:54:56.293Z,29.52
2023-05-14T15:57:23.777Z,29.54
2023-05-14T15:59:51.538Z,29.68
2023-05-14T16:02:18.692Z,29.73
2023-05-14T16:04:45.545Z,29.74
2023-05-14T16:07:13.307Z,29.73
2023-05-14T16:09:40.234Z,29.70
2023-05-14T16:12:07.846Z,29.67
2023-05-14T16:14:35.239Z,29.61
2023-05-14T16:17:02.253Z,29.57
2023-05-14T16:19:29.162Z,29.53
2023-05-14T16:21:56.081Z,29.47
2023-05-14T16:24:22.862Z,29.34
2023-05-14T16:26:49.653Z,29.27
2023-05-14T16:29:16.486Z,29.24
2023-05-14T16:31:43.588Z,29.21
2023-05-14T16:34:10.479Z,29.15
2023-05-14T16:36:37.644Z,29.06
2023-05-14T16:39:07.757Z,28.98
2023-05-14T16:41:38.380Z,28.91
2023-05-14T16:44:05.229Z,28.83
2023-05-14T16:46:32.437Z,28.75
2023-05-14T16:48:59.549Z,28.69
2023-05-14T16:51:26.355Z,28.62
2023-05-14T16:53:55.405Z,28.55
2023-05-14T16:56:23.650Z,28.49
2023-05-14T16:58:50.540Z,28.43
2023-05-14T17:01:17.428Z,28.36
2023-05-14T17:03:45.697Z,28.30
2023-05-14T17:06:12.492Z,28.23
2023-05-14T17:08:39.412Z,28.15
2023-05-14T17:11:06.274Z,28.11
2023-05-14T17:13:33.591Z,28.06
2023-05-14T17:16:01.109Z,28.01
2023-05-14T17:18:28.587Z,27.94
2023-05-14T17:20:55.912Z,27.90
2023-05-14T17:23:22.763Z,27.98
2023-05-14T17:25:49.864Z,27.95
2023-05-14T17:28:16.726Z,27.87
2023-05-14T17:30:43.956Z,27.80
2023-05-14T17:33:11.695Z,27.74
2023-05-14T17:35:38.780Z,27.71
2023-05-14T17:38:05.815Z,27.56
2023-05-14T17:40:33.796Z,27.45
2023-05-14T17:43:00.892Z,27.39
2023-05-14T17:45:28.550Z,27.34
2023-05-14T17:47:57.669Z,27.28
2023-05-14T17:50:24.602Z,27.24
2023-05-14T17:52:51.617Z,27.29
2023-05-14T17:55:19.358Z,27.22
2023-05-14T17:57:46.535Z,27.01
2023-05-14T18:00:14.000Z,26.88
2023-05-14T18:02:41.844Z,26.84
2023-05-14T18:05:09.170Z,26.79
2023-05-14T18:07:36.835Z,26.74
2023-05-14T18:10:04.301Z,26.69
2023-05-14T18:12:31.129Z,26.63
2023-05-14T18:14:58.032Z,26.59
2023-05-14T18:17:24.833Z,26.56
2023-05-14T18:19:51.837Z,26.53
2023-05-14T18:22:20.396Z,26.54
2023-05-14T18:24:47.483Z,26.59
2023-05-14T18:27:14.373Z,26.56
2023-05-14T18:29:42.835Z,26.49
2023-05-14T18:32:09.815Z,26.43
2023-05-14T18:34:36.642Z,26.34
2023-05-14T18:37:03.621Z,26.21
2023-05-14T18:39:30.472Z,26.16
2023-05-14T18:41:57.533Z,26.14
2023-05-14T18:44:24.435Z,26.10
2023-05-14T18:46:51.322Z,26.07
2023-05-14T18:49:18.219Z,26.04
2023-05-14T18:51:45.020Z,26.08
2023-05-14T18:54:11.910Z,26.08
2023-05-14T18:56:41.397Z,25.98
2023-05-14T18:59:09.421Z,25.80
2023-05-14T19:01:36.533Z,25.72
2023-05-14T19:04:05.397Z,25.65
2023-05-14T19:06:32.929Z,25.57
2023-05-14T19:09:00.127Z,25.59
2023-05-14T19:11:27.002Z,25.58
2023-05-14T19:13:53.788Z,25.59
2023-05-14T19:16:21.406Z,25.71
2023-05-14T19:18:48.424Z,25.76
2023-05-14T19:21:15.422Z,25.75
2023-05-14T19:23:42.210Z,25.74
2023-05-14T19:26:09.112Z,25.72
2023-05-14T19:28:37.985Z,25.69
2023-05-14T19:31:05.641Z,25.63
2023-05-14T19:33:32.585Z,25.56
2023-05-14T19:35:59.417Z,25.49
2023-05-14T19:38:26.403Z,25.41
2023-05-14T19:40:56.929Z,25.31
2023-05-14T19:43:25.592Z,25.21
2023-05-14T19:45:52.474Z,25.14
2023-05-14T19:48:19.763Z,25.07
2023-05-14T19:50:47.358Z,24.99
2023-05-14T19:53:14.567Z,24.95
2023-05-14T19:55:41.993Z,24.89
2023-05-14T19:58:09.073Z,24.85
2023-05-14T20:00:37.207Z,24.79
2023-05-14T20:03:06.104Z,24.73
2023-05-14T20:05:34.511Z,24.68
2023-05-14T20:08:01.741Z,24.63
2023-05-14T20:10:28.717Z,24.57
2023-05-14T20:12:55.641Z,24.51
2023-05-14T20:15:22.479Z,24.44
2023-05-14T20:17:49.391Z,24.36
2023-05-14T20:20:16.801Z,24.31
2023-05-14T20:22:44.164Z,24.27
2023-05-14T20:25:11.052Z,24.23
2023-05-14T20:27:37.888Z,24.21
2023-05-14T20:30:08.267Z,24.16
2023-05-14T20:32:35.304Z,24.11
2023-05-14T20:35:02.445Z,24.05
2023-05-14T20:37:33.359Z,23.98
2023-05-14T20:40:00.663Z,23.91
2023-05-14T20:42:27.789Z,23.85
2023-05-14T20:44:54.877Z,23.79
2023-05-14T20:47:24.405Z,23.72
2023-05-14T20:49:51.346Z,23.66
2023-05-14T20:52:18.975Z,23.61
2023-05-14T20:54:46.184Z,23.58
2023-05-14T20:57:16.069Z,23.54
2023-05-14T20:59:42.891Z,23.54
2023-05-14T21:02:09.910Z,23.55
2023-05-14T21:04:37.024Z,23.54
2023-05-14T21:07:04.271Z,23.48
2023-05-14T21:09:31.184Z,23.41
2023-05-14T21:11:57.973Z,23.33
2023-05-14T21:14:25.110Z,23.25
2023-05-14T21:16:52.001Z,23.19
2023-05-14T21:19:18.886Z,23.15
2023-05-14T21:21:47.496Z,23.13
2023-05-14T21:24:16.855Z,23.11
2023-05-14T21:26:43.722Z,23.08
2023-05-14T21:29:11.215Z,23.05
2023-05-14T21:31:38.096Z,23.00
2023-05-14T21:34:05.059Z,22.96
2023-05-14T21:36:31.956Z,22.92
2023-05-14T21:38:58.744Z,22.89
2023-05-14T21:41:25.819Z,22.84
2023-05-14T21:43:52.742Z,22.81
2023-05-14T21:46:19.532Z,22.77
2023-05-14T21:48:46.468Z,22.73
2023-05-14T21:51:13.420Z,22.69
2023-05-14T21:53:40.223Z,22.65
2023-05-14T21:56:08.300Z,22.63
2023-05-14T21:58:35.976Z,22.59
2023-05-14T22:01:02.849Z,22.56
2023-05-14T22:03:29.792Z,22.52
2023-05-14T22:05:57.422Z,22.53
2023-05-14T22:08:24.304Z,22.54
2023-05-14T22:10:51.300Z,22.54
2023-05-14T22:13:18.183Z,22.51
2023-05-14T22:15:45.075Z,22.45
2023-05-14T22:18:12.998Z,22.40
2023-05-14T22:20:40.243Z,22.33
2023-05-14T22:23:07.252Z,22.29
2023-05-14T22:25:34.110Z,22.25
2023-05-14T22:28:00.941Z,22.22
2023-05-14T22:30:27.822Z,22.18
2023-05-14T22:32:54.686Z,22.12
2023-05-14T22:35:21.629Z,22.08
2023-05-14T22:37:48.523Z,22.06
2023-05-14T22:40:15.351Z,22.05
2023-05-14T22:42:42.155Z,22.02
2023-05-14T22:45:09.880Z,21.99
2023-05-14T22:47:37.966Z,21.96
2023-05-14T22:50:11.293Z,21.93
2023-05-14T22:52:39.434Z,21.89
2023-05-14T22:56:52.837Z,20.69
2023-05-14T22:59:21.015Z,21.64
2023-05-14T23:01:49.920Z,21.75
2023-05-14T23:04:16.828Z,21.76
2023-05-14T23:06:43.625Z,21.75
2023-05-14T23:09:10.417Z,21.71
2023-05-14T23:11:37.314Z,21.67
2023-05-14T23:14:04.153Z,21.62
2023-05-14T23:16:32.036Z,21.54
2023-05-14T23:18:58.951Z,21.44
2023-05-14T23:21:26.053Z,21.33
2023-05-14T23:23:52.992Z,21.23
2023-05-14T23:26:19.928Z,21.14
2023-05-14T23:28:47.583Z,21.06
2023-05-14T23:31:14.395Z,21.04
2023-05-14T23:33:41.250Z,20.96
2023-05-14T23:36:08.692Z,20.95
2023-05-14T23:38:35.568Z,20.95
2023-05-14T23:41:02.381Z,20.96
2023-05-14T23:43:29.260Z,20.98
2023-05-14T23:45:56.141Z,21.00
2023-05-14T23:48:23.056Z,21.03
2023-05-14T23:50:49.962Z,21.03
2023-05-14T23:53:17.767Z,21.03
2023-05-14T23:55:44.704Z,21.02
2023-05-14T23:58:11.796Z,20.99
